sensor_id;sensor_type;location;lat;lon;timestamp;P1;durP1;ratioP1;P2;durP2;ratioP2
40993;SDS011;26722;43.212;27.932;2023-04-24T00:02:12;12.38;;;6.72;;
40993;SDS011;26722;43.212;27.932;2023-04-24T00:04:37;22.05;;;7.90;;
40993;SDS011;26722;43.212;27.932;2023-04-24T00:07:06;29.52;;;8.25;;
40993;SDS011;26722;43.212;27.932;2023-04-24T00:09:35;19.27;;;7.25;;
40993;SDS011;26722;43.212;27.932;2023-04-24T00:12:00;25.60;;;7.07;;
40993;SDS011;26722;43.212;27.932;2023-04-24T00:14:28;17.48;;;7.40;;
40993;SDS011;26722;43.212;27.932;2023-04-24T00:16:54;14.07;;;6.60;;
40993;SDS011;26722;43.212;27.932;2023-04-24T00:19:19;19.50;;;7.13;;
40993;SDS011;26722;43.212;27.932;2023-04-24T00:21:46;16.58;;;6.78;;
40993;SDS011;26722;43.212;27.932;2023-04-24T00:24:14;14.52;;;6.70;;
40993;SDS011;26722;43.212;27.932;2023-04-24T00:26:41;20.45;;;7.63;;
40993;SDS011;26722;43.212;27.932;2023-04-24T00:29:06;19.27;;;7.47;;
40993;SDS011;26722;43.212;27.932;2023-04-24T00:31:31;16.75;;;6.88;;
40993;SDS011;26722;43.212;27.932;2023-04-24T00:33:59;24.40;;;7.60;;
40993;SDS011;26722;43.212;27.932;2023-04-24T00:36:25;16.30;;;6.03;;
40993;SDS011;26722;43.212;27.932;2023-04-24T00:38:52;17.83;;;7.03;;
40993;SDS011;26722;43.212;27.932;2023-04-24T00:41:18;20.38;;;6.18;;
40993;SDS011;26722;43.212;27.932;2023-04-24T00:43:43;20.02;;;6.60;;
40993;SDS011;26722;43.212;27.932;2023-04-24T00:46:09;14.68;;;6.05;;
40993;SDS011;26722;43.212;27.932;2023-04-24T00:48:36;21.30;;;5.95;;
40993;SDS011;26722;43.212;27.932;2023-04-24T00:51:04;16.10;;;6.70;;
40993;SDS011;26722;43.212;27.932;2023-04-24T00:53:29;16.15;;;6.47;;
40993;SDS011;26722;43.212;27.932;2023-04-24T00:55:55;17.27;;;6.43;;
40993;SDS011;26722;43.212;27.932;2023-04-24T00:58:21;15.75;;;6.07;;
40993;SDS011;26722;43.212;27.932;2023-04-24T01:00:48;19.45;;;7.57;;
40993;SDS011;26722;43.212;27.932;2023-04-24T01:03:18;16.95;;;6.53;;
40993;SDS011;26722;43.212;27.932;2023-04-24T01:05:45;23.25;;;7.63;;
40993;SDS011;26722;43.212;27.932;2023-04-24T01:08:11;16.58;;;6.25;;
40993;SDS011;26722;43.212;27.932;2023-04-24T01:10:36;18.58;;;6.70;;
40993;SDS011;26722;43.212;27.932;2023-04-24T01:13:05;23.95;;;7.05;;
40993;SDS011;26722;43.212;27.932;2023-04-24T01:15:35;14.85;;;5.82;;
40993;SDS011;26722;43.212;27.932;2023-04-24T01:18:01;13.60;;;6.03;;
40993;SDS011;26722;43.212;27.932;2023-04-24T01:20:26;16.23;;;6.72;;
40993;SDS011;26722;43.212;27.932;2023-04-24T01:22:52;18.23;;;6.72;;
40993;SDS011;26722;43.212;27.932;2023-04-24T01:25:19;24.52;;;7.15;;
40993;SDS011;26722;43.212;27.932;2023-04-24T01:27:45;18.13;;;7.15;;
40993;SDS011;26722;43.212;27.932;2023-04-24T01:30:11;20.42;;;7.72;;
40993;SDS011;26722;43.212;27.932;2023-04-24T01:32:37;27.30;;;7.10;;
40993;SDS011;26722;43.212;27.932;2023-04-24T01:35:04;19.33;;;7.20;;
40993;SDS011;26722;43.212;27.932;2023-04-24T01:37:30;15.90;;;6.45;;
40993;SDS011;26722;43.212;27.932;2023-04-24T01:39:57;19.83;;;6.57;;
40993;SDS011;26722;43.212;27.932;2023-04-24T01:42:22;13.30;;;5.90;;
40993;SDS011;26722;43.212;27.932;2023-04-24T01:44:48;18.48;;;6.10;;
40993;SDS011;26722;43.212;27.932;2023-04-24T01:47:14;19.60;;;6.40;;
40993;SDS011;26722;43.212;27.932;2023-04-24T01:49:39;19.58;;;6.00;;
40993;SDS011;26722;43.212;27.932;2023-04-24T01:52:05;14.00;;;6.00;;
40993;SDS011;26722;43.212;27.932;2023-04-24T01:54:30;16.45;;;6.72;;
40993;SDS011;26722;43.212;27.932;2023-04-24T01:56:56;14.70;;;6.38;;
40993;SDS011;26722;43.212;27.932;2023-04-24T01:59:21;14.50;;;6.35;;
40993;SDS011;26722;43.212;27.932;2023-04-24T02:01:48;17.00;;;6.80;;
40993;SDS011;26722;43.212;27.932;2023-04-24T02:04:14;21.00;;;6.60;;
40993;SDS011;26722;43.212;27.932;2023-04-24T02:06:40;16.38;;;7.00;;
40993;SDS011;26722;43.212;27.932;2023-04-24T02:09:05;27.92;;;7.47;;
40993;SDS011;26722;43.212;27.932;2023-04-24T02:11:31;22.27;;;6.38;;
40993;SDS011;26722;43.212;27.932;2023-04-24T02:13:56;17.95;;;6.47;;
40993;SDS011;26722;43.212;27.932;2023-04-24T02:16:22;20.52;;;6.43;;
40993;SDS011;26722;43.212;27.932;2023-04-24T02:18:48;17.45;;;7.03;;
40993;SDS011;26722;43.212;27.932;2023-04-24T02:21:13;16.73;;;6.85;;
40993;SDS011;26722;43.212;27.932;2023-04-24T02:23:38;17.02;;;6.55;;
40993;SDS011;26722;43.212;27.932;2023-04-24T02:26:04;16.38;;;6.22;;
40993;SDS011;26722;43.212;27.932;2023-04-24T02:28:30;18.45;;;7.28;;
40993;SDS011;26722;43.212;27.932;2023-04-24T02:30:55;19.67;;;7.30;;
40993;SDS011;26722;43.212;27.932;2023-04-24T02:33:20;18.58;;;6.75;;
40993;SDS011;26722;43.212;27.932;2023-04-24T02:35:46;18.45;;;7.40;;
40993;SDS011;26722;43.212;27.932;2023-04-24T02:38:11;16.73;;;8.02;;
40993;SDS011;26722;43.212;27.932;2023-04-24T02:40:37;23.60;;;8.20;;
40993;SDS011;26722;43.212;27.932;2023-04-24T02:43:02;22.92;;;8.02;;
40993;SDS011;26722;43.212;27.932;2023-04-24T02:45:28;23.90;;;8.23;;
40993;SDS011;26722;43.212;27.932;2023-04-24T02:47:53;20.10;;;8.13;;
40993;SDS011;26722;43.212;27.932;2023-04-24T02:50:19;16.15;;;8.88;;
40993;SDS011;26722;43.212;27.932;2023-04-24T02:52:44;21.83;;;9.00;;
40993;SDS011;26722;43.212;27.932;2023-04-24T02:55:10;18.67;;;9.02;;
40993;SDS011;26722;43.212;27.932;2023-04-24T02:57:35;18.73;;;8.32;;
40993;SDS011;26722;43.212;27.932;2023-04-24T03:00:01;22.85;;;9.02;;
40993;SDS011;26722;43.212;27.932;2023-04-24T03:02:26;16.48;;;7.35;;
40993;SDS011;26722;43.212;27.932;2023-04-24T03:04:51;22.15;;;7.15;;
40993;SDS011;26722;43.212;27.932;2023-04-24T03:07:17;17.45;;;7.15;;
40993;SDS011;26722;43.212;27.932;2023-04-24T03:09:45;19.35;;;7.72;;
40993;SDS011;26722;43.212;27.932;2023-04-24T03:12:11;16.02;;;7.45;;
40993;SDS011;26722;43.212;27.932;2023-04-24T03:14:36;20.77;;;8.13;;
40993;SDS011;26722;43.212;27.932;2023-04-24T03:17:02;16.63;;;8.38;;
40993;SDS011;26722;43.212;27.932;2023-04-24T03:19:27;19.08;;;8.20;;
40993;SDS011;26722;43.212;27.932;2023-04-24T03:21:52;22.50;;;8.32;;
40993;SDS011;26722;43.212;27.932;2023-04-24T03:24:18;19.90;;;8.02;;
40993;SDS011;26722;43.212;27.932;2023-04-24T03:26:43;21.02;;;6.82;;
40993;SDS011;26722;43.212;27.932;2023-04-24T03:29:09;15.55;;;7.35;;
40993;SDS011;26722;43.212;27.932;2023-04-24T03:31:34;15.55;;;7.07;;
40993;SDS011;26722;43.212;27.932;2023-04-24T03:34:00;14.57;;;7.25;;
40993;SDS011;26722;43.212;27.932;2023-04-24T03:36:25;15.27;;;7.03;;
40993;SDS011;26722;43.212;27.932;2023-04-24T03:38:51;21.48;;;6.85;;
40993;SDS011;26722;43.212;27.932;2023-04-24T03:41:16;18.92;;;6.93;;
40993;SDS011;26722;43.212;27.932;2023-04-24T03:43:42;25.50;;;6.90;;
40993;SDS011;26722;43.212;27.932;2023-04-24T03:46:07;18.65;;;6.72;;
40993;SDS011;26722;43.212;27.932;2023-04-24T03:48:34;16.98;;;6.88;;
40993;SDS011;26722;43.212;27.932;2023-04-24T03:51:00;18.83;;;6.65;;
40993;SDS011;26722;43.212;27.932;2023-04-24T03:53:25;18.13;;;6.57;;
40993;SDS011;26722;43.212;27.932;2023-04-24T03:55:51;11.68;;;6.45;;
40993;SDS011;26722;43.212;27.932;2023-04-24T03:58:18;16.90;;;6.82;;
40993;SDS011;26722;43.212;27.932;2023-04-24T04:00:44;17.80;;;5.75;;
40993;SDS011;26722;43.212;27.932;2023-04-24T04:03:09;18.42;;;5.32;;
40993;SDS011;26722;43.212;27.932;2023-04-24T04:05:35;14.70;;;5.75;;
40993;SDS011;26722;43.212;27.932;2023-04-24T04:08:00;11.50;;;5.07;;
40993;SDS011;26722;43.212;27.932;2023-04-24T04:10:26;17.70;;;5.18;;
40993;SDS011;26722;43.212;27.932;2023-04-24T04:12:51;17.42;;;5.20;;
40993;SDS011;26722;43.212;27.932;2023-04-24T04:15:16;23.20;;;5.72;;
40993;SDS011;26722;43.212;27.932;2023-04-24T04:17:42;16.27;;;5.45;;
40993;SDS011;26722;43.212;27.932;2023-04-24T04:20:07;19.17;;;5.40;;
40993;SDS011;26722;43.212;27.932;2023-04-24T04:22:36;17.25;;;5.10;;
40993;SDS011;26722;43.212;27.932;2023-04-24T04:25:02;15.90;;;5.35;;
40993;SDS011;26722;43.212;27.932;2023-04-24T04:27:29;17.80;;;4.65;;
40993;SDS011;26722;43.212;27.932;2023-04-24T04:30:00;7.38;;;4.32;;
40993;SDS011;26722;43.212;27.932;2023-04-24T04:32:29;19.08;;;5.38;;
40993;SDS011;26722;43.212;27.932;2023-04-24T04:35:01;12.32;;;5.63;;
40993;SDS011;26722;43.212;27.932;2023-04-24T04:37:32;17.48;;;5.60;;
40993;SDS011;26722;43.212;27.932;2023-04-24T04:39:59;16.45;;;5.25;;
40993;SDS011;26722;43.212;27.932;2023-04-24T04:42:25;17.10;;;5.63;;
40993;SDS011;26722;43.212;27.932;2023-04-24T04:44:52;17.35;;;5.70;;
40993;SDS011;26722;43.212;27.932;2023-04-24T04:47:18;15.65;;;5.95;;
40993;SDS011;26722;43.212;27.932;2023-04-24T04:49:49;15.40;;;6.05;;
40993;SDS011;26722;43.212;27.932;2023-04-24T04:52:16;15.98;;;5.25;;
40993;SDS011;26722;43.212;27.932;2023-04-24T04:54:42;19.30;;;5.78;;
40993;SDS011;26722;43.212;27.932;2023-04-24T04:57:08;19.67;;;4.80;;
40993;SDS011;26722;43.212;27.932;2023-04-24T04:59:34;12.57;;;4.80;;
40993;SDS011;26722;43.212;27.932;2023-04-24T05:01:59;15.15;;;4.40;;
40993;SDS011;26722;43.212;27.932;2023-04-24T05:04:25;13.80;;;4.82;;
40993;SDS011;26722;43.212;27.932;2023-04-24T05:06:51;17.48;;;4.55;;
40993;SDS011;26722;43.212;27.932;2023-04-24T05:09:17;13.15;;;4.07;;
40993;SDS011;26722;43.212;27.932;2023-04-24T05:11:42;14.68;;;4.75;;
40993;SDS011;26722;43.212;27.932;2023-04-24T05:14:07;11.60;;;4.40;;
40993;SDS011;26722;43.212;27.932;2023-04-24T05:16:33;11.70;;;3.45;;
40993;SDS011;26722;43.212;27.932;2023-04-24T05:18:58;20.83;;;4.60;;
40993;SDS011;26722;43.212;27.932;2023-04-24T05:21:24;14.85;;;4.47;;
40993;SDS011;26722;43.212;27.932;2023-04-24T05:23:50;11.50;;;4.57;;
40993;SDS011;26722;43.212;27.932;2023-04-24T05:26:15;14.93;;;4.57;;
40993;SDS011;26722;43.212;27.932;2023-04-24T05:28:41;9.35;;;3.83;;
40993;SDS011;26722;43.212;27.932;2023-04-24T05:31:06;12.38;;;4.75;;
40993;SDS011;26722;43.212;27.932;2023-04-24T05:33:32;13.27;;;3.90;;
40993;SDS011;26722;43.212;27.932;2023-04-24T05:35:57;8.50;;;4.03;;
40993;SDS011;26722;43.212;27.932;2023-04-24T05:38:23;12.80;;;3.47;;
40993;SDS011;26722;43.212;27.932;2023-04-24T05:40:48;7.18;;;2.90;;
40993;SDS011;26722;43.212;27.932;2023-04-24T05:43:14;11.10;;;4.32;;
40993;SDS011;26722;43.212;27.932;2023-04-24T05:45:39;8.00;;;3.03;;
40993;SDS011;26722;43.212;27.932;2023-04-24T05:48:05;10.98;;;4.57;;
40993;SDS011;26722;43.212;27.932;2023-04-24T05:50:30;15.18;;;4.10;;
40993;SDS011;26722;43.212;27.932;2023-04-24T05:52:56;14.07;;;3.80;;
40993;SDS011;26722;43.212;27.932;2023-04-24T05:55:26;7.43;;;3.50;;
40993;SDS011;26722;43.212;27.932;2023-04-24T05:57:52;13.05;;;3.85;;
40993;SDS011;26722;43.212;27.932;2023-04-24T06:00:18;12.93;;;3.78;;
40993;SDS011;26722;43.212;27.932;2023-04-24T06:02:44;15.02;;;4.35;;
40993;SDS011;26722;43.212;27.932;2023-04-24T06:05:10;10.23;;;3.92;;
40993;SDS011;26722;43.212;27.932;2023-04-24T06:07:36;10.32;;;3.90;;
40993;SDS011;26722;43.212;27.932;2023-04-24T06:10:01;12.38;;;3.85;;
40993;SDS011;26722;43.212;27.932;2023-04-24T06:12:27;10.10;;;4.00;;
40993;SDS011;26722;43.212;27.932;2023-04-24T06:14:52;11.57;;;4.15;;
40993;SDS011;26722;43.212;27.932;2023-04-24T06:17:19;13.20;;;4.32;;
40993;SDS011;26722;43.212;27.932;2023-04-24T06:19:44;7.50;;;3.50;;
40993;SDS011;26722;43.212;27.932;2023-04-24T06:22:10;9.40;;;4.05;;
40993;SDS011;26722;43.212;27.932;2023-04-24T06:24:35;9.07;;;3.58;;
40993;SDS011;26722;43.212;27.932;2023-04-24T06:27:01;9.40;;;3.75;;
40993;SDS011;26722;43.212;27.932;2023-04-24T06:29:27;10.77;;;3.90;;
40993;SDS011;26722;43.212;27.932;2023-04-24T06:31:52;8.00;;;3.42;;
40993;SDS011;26722;43.212;27.932;2023-04-24T06:34:18;10.05;;;3.67;;
40993;SDS011;26722;43.212;27.932;2023-04-24T06:36:43;11.07;;;3.33;;
40993;SDS011;26722;43.212;27.932;2023-04-24T06:39:09;11.95;;;4.10;;
40993;SDS011;26722;43.212;27.932;2023-04-24T06:41:34;9.60;;;3.35;;
40993;SDS011;26722;43.212;27.932;2023-04-24T06:44:00;11.25;;;4.35;;
40993;SDS011;26722;43.212;27.932;2023-04-24T06:46:26;8.18;;;3.17;;
40993;SDS011;26722;43.212;27.932;2023-04-24T06:48:52;11.98;;;4.07;;
40993;SDS011;26722;43.212;27.932;2023-04-24T06:51:21;10.77;;;4.25;;
40993;SDS011;26722;43.212;27.932;2023-04-24T06:53:48;11.52;;;3.97;;
40993;SDS011;26722;43.212;27.932;2023-04-24T06:56:14;14.52;;;5.15;;
40993;SDS011;26722;43.212;27.932;2023-04-24T06:58:40;12.85;;;4.63;;
40993;SDS011;26722;43.212;27.932;2023-04-24T07:01:06;7.60;;;3.67;;
40993;SDS011;26722;43.212;27.932;2023-04-24T07:03:31;8.10;;;3.72;;
40993;SDS011;26722;43.212;27.932;2023-04-24T07:05:56;14.57;;;4.43;;
40993;SDS011;26722;43.212;27.932;2023-04-24T07:08:22;10.82;;;4.32;;
40993;SDS011;26722;43.212;27.932;2023-04-24T07:10:49;10.38;;;4.40;;
40993;SDS011;26722;43.212;27.932;2023-04-24T07:13:15;10.95;;;4.38;;
40993;SDS011;26722;43.212;27.932;2023-04-24T07:15:41;10.73;;;4.93;;
40993;SDS011;26722;43.212;27.932;2023-04-24T07:18:06;20.05;;;4.70;;
40993;SDS011;26722;43.212;27.932;2023-04-24T07:20:32;13.25;;;4.13;;
40993;SDS011;26722;43.212;27.932;2023-04-24T07:22:58;10.18;;;3.80;;
40993;SDS011;26722;43.212;27.932;2023-04-24T07:25:23;12.00;;;4.53;;
40993;SDS011;26722;43.212;27.932;2023-04-24T07:27:49;13.00;;;4.72;;
40993;SDS011;26722;43.212;27.932;2023-04-24T07:30:14;12.63;;;4.35;;
40993;SDS011;26722;43.212;27.932;2023-04-24T07:32:40;10.75;;;4.38;;
40993;SDS011;26722;43.212;27.932;2023-04-24T07:35:05;15.77;;;4.60;;
40993;SDS011;26722;43.212;27.932;2023-04-24T07:37:31;11.63;;;4.57;;
40993;SDS011;26722;43.212;27.932;2023-04-24T07:39:56;7.00;;;3.58;;
40993;SDS011;26722;43.212;27.932;2023-04-24T07:42:22;12.30;;;4.43;;
40993;SDS011;26722;43.212;27.932;2023-04-24T07:44:47;10.85;;;4.50;;
40993;SDS011;26722;43.212;27.932;2023-04-24T07:47:13;8.52;;;4.40;;
40993;SDS011;26722;43.212;27.932;2023-04-24T07:49:41;11.40;;;4.53;;
40993;SDS011;26722;43.212;27.932;2023-04-24T07:52:07;11.18;;;4.20;;
40993;SDS011;26722;43.212;27.932;2023-04-24T07:54:32;11.63;;;4.18;;
40993;SDS011;26722;43.212;27.932;2023-04-24T07:56:57;11.35;;;3.70;;
40993;SDS011;26722;43.212;27.932;2023-04-24T07:59:23;14.98;;;4.05;;
40993;SDS011;26722;43.212;27.932;2023-04-24T08:01:48;14.68;;;4.68;;
40993;SDS011;26722;43.212;27.932;2023-04-24T08:04:14;12.80;;;4.03;;
40993;SDS011;26722;43.212;27.932;2023-04-24T08:06:40;13.73;;;4.32;;
40993;SDS011;26722;43.212;27.932;2023-04-24T08:09:05;10.50;;;4.22;;
40993;SDS011;26722;43.212;27.932;2023-04-24T08:11:31;12.85;;;4.13;;
40993;SDS011;26722;43.212;27.932;2023-04-24T08:13:57;13.15;;;4.25;;
40993;SDS011;26722;43.212;27.932;2023-04-24T08:16:22;14.93;;;4.10;;
40993;SDS011;26722;43.212;27.932;2023-04-24T08:18:51;29.30;;;5.15;;
40993;SDS011;26722;43.212;27.932;2023-04-24T08:21:16;29.13;;;4.55;;
40993;SDS011;26722;43.212;27.932;2023-04-24T08:23:43;15.02;;;4.65;;
40993;SDS011;26722;43.212;27.932;2023-04-24T08:26:10;15.93;;;4.53;;
40993;SDS011;26722;43.212;27.932;2023-04-24T08:28:36;22.52;;;4.70;;
40993;SDS011;26722;43.212;27.932;2023-04-24T08:31:02;10.95;;;5.18;;
40993;SDS011;26722;43.212;27.932;2023-04-24T08:33:27;20.38;;;6.10;;
40993;SDS011;26722;43.212;27.932;2023-04-24T08:35:59;13.30;;;5.03;;
40993;SDS011;26722;43.212;27.932;2023-04-24T08:38:25;11.45;;;4.72;;
40993;SDS011;26722;43.212;27.932;2023-04-24T08:40:51;11.40;;;4.40;;
40993;SDS011;26722;43.212;27.932;2023-04-24T08:43:17;15.43;;;4.88;;
40993;SDS011;26722;43.212;27.932;2023-04-24T08:45:43;19.42;;;5.00;;
40993;SDS011;26722;43.212;27.932;2023-04-24T08:48:09;12.98;;;5.05;;
40993;SDS011;26722;43.212;27.932;2023-04-24T08:50:35;19.83;;;5.15;;
40993;SDS011;26722;43.212;27.932;2023-04-24T08:53:01;12.48;;;5.10;;
40993;SDS011;26722;43.212;27.932;2023-04-24T08:55:27;19.48;;;5.57;;
40993;SDS011;26722;43.212;27.932;2023-04-24T08:57:55;13.68;;;4.88;;
40993;SDS011;26722;43.212;27.932;2023-04-24T09:00:22;10.40;;;4.90;;
40993;SDS011;26722;43.212;27.932;2023-04-24T09:02:51;14.93;;;4.63;;
40993;SDS011;26722;43.212;27.932;2023-04-24T09:05:18;11.45;;;5.18;;
40993;SDS011;26722;43.212;27.932;2023-04-24T09:07:49;13.52;;;4.50;;
40993;SDS011;26722;43.212;27.932;2023-04-24T09:10:18;11.05;;;4.82;;
40993;SDS011;26722;43.212;27.932;2023-04-24T09:12:44;20.77;;;5.50;;
40993;SDS011;26722;43.212;27.932;2023-04-24T09:15:10;19.50;;;4.57;;
40993;SDS011;26722;43.212;27.932;2023-04-24T09:17:36;15.50;;;5.13;;
40993;SDS011;26722;43.212;27.932;2023-04-24T09:20:02;21.05;;;5.03;;
40993;SDS011;26722;43.212;27.932;2023-04-24T09:22:29;17.10;;;4.95;;
40993;SDS011;26722;43.212;27.932;2023-04-24T09:25:02;13.43;;;5.65;;
40993;SDS011;26722;43.212;27.932;2023-04-24T09:27:30;19.83;;;6.05;;
40993;SDS011;26722;43.212;27.932;2023-04-24T09:29:56;14.73;;;4.97;;
40993;SDS011;26722;43.212;27.932;2023-04-24T09:32:22;13.75;;;4.90;;
40993;SDS011;26722;43.212;27.932;2023-04-24T09:35:04;13.10;;;5.00;;
40993;SDS011;26722;43.212;27.932;2023-04-24T09:37:45;10.88;;;4.78;;
40993;SDS011;26722;43.212;27.932;2023-04-24T09:42:43;15.48;;;4.88;;
40993;SDS011;26722;43.212;27.932;2023-04-24T09:45:16;18.83;;;6.43;;
40993;SDS011;26722;43.212;27.932;2023-04-24T09:47:45;17.42;;;5.43;;
40993;SDS011;26722;43.212;27.932;2023-04-24T09:52:44;16.05;;;4.93;;
40993;SDS011;26722;43.212;27.932;2023-04-24T09:55:16;11.23;;;4.60;;
40993;SDS011;26722;43.212;27.932;2023-04-24T10:00:38;24.10;;;5.22;;
40993;SDS011;26722;43.212;27.932;2023-04-24T10:03:04;19.35;;;5.57;;
40993;SDS011;26722;43.212;27.932;2023-04-24T10:05:31;11.18;;;4.95;;
40993;SDS011;26722;43.212;27.932;2023-04-24T10:08:00;13.32;;;4.78;;
40993;SDS011;26722;43.212;27.932;2023-04-24T10:10:34;15.02;;;4.63;;
40993;SDS011;26722;43.212;27.932;2023-04-24T10:13:03;12.88;;;5.07;;
40993;SDS011;26722;43.212;27.932;2023-04-24T10:15:29;13.93;;;5.03;;
40993;SDS011;26722;43.212;27.932;2023-04-24T10:17:55;16.02;;;5.43;;
40993;SDS011;26722;43.212;27.932;2023-04-24T10:20:24;16.08;;;5.20;;
40993;SDS011;26722;43.212;27.932;2023-04-24T10:22:52;15.52;;;5.20;;
40993;SDS011;26722;43.212;27.932;2023-04-24T10:25:19;15.63;;;4.80;;
40993;SDS011;26722;43.212;27.932;2023-04-24T10:27:47;14.20;;;5.20;;
40993;SDS011;26722;43.212;27.932;2023-04-24T10:30:13;17.95;;;6.60;;
40993;SDS011;26722;43.212;27.932;2023-04-24T10:32:39;15.27;;;5.63;;
40993;SDS011;26722;43.212;27.932;2023-04-24T10:35:08;12.73;;;5.35;;
40993;SDS011;26722;43.212;27.932;2023-04-24T10:37:40;14.60;;;4.93;;
40993;SDS011;26722;43.212;27.932;2023-04-24T10:40:40;17.67;;;5.75;;
40993;SDS011;26722;43.212;27.932;2023-04-24T10:43:08;12.50;;;5.50;;
40993;SDS011;26722;43.212;27.932;2023-04-24T10:45:36;18.35;;;5.60;;
40993;SDS011;26722;43.212;27.932;2023-04-24T10:48:06;17.58;;;5.07;;
40993;SDS011;26722;43.212;27.932;2023-04-24T10:50:42;17.65;;;5.07;;
40993;SDS011;26722;43.212;27.932;2023-04-24T10:53:16;15.13;;;4.97;;
40993;SDS011;26722;43.212;27.932;2023-04-24T10:55:49;12.55;;;5.35;;
40993;SDS011;26722;43.212;27.932;2023-04-24T10:58:16;15.98;;;5.95;;
40993;SDS011;26722;43.212;27.932;2023-04-24T11:01:01;13.25;;;5.47;;
40993;SDS011;26722;43.212;27.932;2023-04-24T11:03:27;23.33;;;6.22;;
40993;SDS011;26722;43.212;27.932;2023-04-24T11:08:31;19.73;;;6.18;;
40993;SDS011;26722;43.212;27.932;2023-04-24T11:19:08;18.35;;;5.18;;
40993;SDS011;26722;43.212;27.932;2023-04-24T11:27:27;25.48;;;4.85;;
40993;SDS011;26722;43.212;27.932;2023-04-24T11:32:25;18.73;;;4.75;;
40993;SDS011;26722;43.212;27.932;2023-04-24T11:34:51;12.00;;;4.97;;
40993;SDS011;26722;43.212;27.932;2023-04-24T11:37:24;17.17;;;5.38;;
40993;SDS011;26722;43.212;27.932;2023-04-24T11:39:55;18.42;;;5.30;;
40993;SDS011;26722;43.212;27.932;2023-04-24T11:42:22;13.70;;;4.88;;
40993;SDS011;26722;43.212;27.932;2023-04-24T11:44:49;15.10;;;4.78;;
40993;SDS011;26722;43.212;27.932;2023-04-24T11:47:16;14.30;;;4.90;;
40993;SDS011;26722;43.212;27.932;2023-04-24T11:49:42;11.50;;;5.70;;
40993;SDS011;26722;43.212;27.932;2023-04-24T11:52:07;15.15;;;4.93;;
40993;SDS011;26722;43.212;27.932;2023-04-24T11:54:33;13.55;;;4.97;;
40993;SDS011;26722;43.212;27.932;2023-04-24T11:56:59;14.43;;;5.07;;
40993;SDS011;26722;43.212;27.932;2023-04-24T11:59:24;12.30;;;5.10;;
40993;SDS011;26722;43.212;27.932;2023-04-24T12:01:50;14.27;;;5.25;;
40993;SDS011;26722;43.212;27.932;2023-04-24T12:04:16;17.80;;;5.63;;
40993;SDS011;26722;43.212;27.932;2023-04-24T12:07:04;18.02;;;5.45;;
40993;SDS011;26722;43.212;27.932;2023-04-24T12:09:54;17.60;;;4.75;;
40993;SDS011;26722;43.212;27.932;2023-04-24T12:12:23;12.32;;;5.13;;
40993;SDS011;26722;43.212;27.932;2023-04-24T12:14:57;15.98;;;4.90;;
40993;SDS011;26722;43.212;27.932;2023-04-24T12:17:24;14.60;;;5.45;;
40993;SDS011;26722;43.212;27.932;2023-04-24T12:19:52;15.13;;;4.97;;
40993;SDS011;26722;43.212;27.932;2023-04-24T12:22:22;13.45;;;5.00;;
40993;SDS011;26722;43.212;27.932;2023-04-24T12:24:57;12.55;;;4.85;;
40993;SDS011;26722;43.212;27.932;2023-04-24T12:27:24;15.40;;;5.55;;
40993;SDS011;26722;43.212;27.932;2023-04-24T12:29:55;14.13;;;5.30;;
40993;SDS011;26722;43.212;27.932;2023-04-24T12:32:21;13.32;;;4.68;;
40993;SDS011;26722;43.212;27.932;2023-04-24T12:34:47;16.92;;;5.35;;
40993;SDS011;26722;43.212;27.932;2023-04-24T12:37:14;14.15;;;5.70;;
40993;SDS011;26722;43.212;27.932;2023-04-24T12:39:39;13.35;;;5.32;;
40993;SDS011;26722;43.212;27.932;2023-04-24T12:42:27;15.43;;;5.15;;
40993;SDS011;26722;43.212;27.932;2023-04-24T12:45:00;13.07;;;5.25;;
40993;SDS011;26722;43.212;27.932;2023-04-24T12:47:28;20.67;;;5.78;;
40993;SDS011;26722;43.212;27.932;2023-04-24T12:49:54;14.45;;;4.20;;
40993;SDS011;26722;43.212;27.932;2023-04-24T12:52:21;10.32;;;4.60;;
40993;SDS011;26722;43.212;27.932;2023-04-24T12:54:53;14.20;;;5.10;;
40993;SDS011;26722;43.212;27.932;2023-04-24T12:57:20;14.82;;;5.55;;
40993;SDS011;26722;43.212;27.932;2023-04-24T12:59:46;17.42;;;5.82;;
40993;SDS011;26722;43.212;27.932;2023-04-24T13:02:12;19.30;;;5.45;;
40993;SDS011;26722;43.212;27.932;2023-04-24T13:04:38;10.45;;;5.35;;
40993;SDS011;26722;43.212;27.932;2023-04-24T13:07:03;16.92;;;5.53;;
40993;SDS011;26722;43.212;27.932;2023-04-24T13:09:30;13.13;;;5.80;;
40993;SDS011;26722;43.212;27.932;2023-04-24T13:11:55;18.23;;;6.30;;
40993;SDS011;26722;43.212;27.932;2023-04-24T13:14:22;20.98;;;7.07;;
40993;SDS011;26722;43.212;27.932;2023-04-24T13:16:48;20.35;;;6.90;;
40993;SDS011;26722;43.212;27.932;2023-04-24T13:19:13;23.42;;;6.75;;
40993;SDS011;26722;43.212;27.932;2023-04-24T13:21:41;19.60;;;6.57;;
40993;SDS011;26722;43.212;27.932;2023-04-24T13:24:07;24.48;;;7.03;;
40993;SDS011;26722;43.212;27.932;2023-04-24T13:26:33;35.42;;;8.23;;
40993;SDS011;26722;43.212;27.932;2023-04-24T13:29:00;23.38;;;7.03;;
40993;SDS011;26722;43.212;27.932;2023-04-24T13:31:25;11.93;;;5.32;;
40993;SDS011;26722;43.212;27.932;2023-04-24T13:33:51;15.93;;;5.47;;
40993;SDS011;26722;43.212;27.932;2023-04-24T13:36:16;11.45;;;4.55;;
40993;SDS011;26722;43.212;27.932;2023-04-24T13:38:42;22.02;;;6.47;;
40993;SDS011;26722;43.212;27.932;2023-04-24T13:41:09;18.08;;;6.55;;
40993;SDS011;26722;43.212;27.932;2023-04-24T13:43:35;37.45;;;8.13;;
40993;SDS011;26722;43.212;27.932;2023-04-24T13:46:00;17.30;;;5.32;;
40993;SDS011;26722;43.212;27.932;2023-04-24T13:48:27;15.43;;;5.80;;
40993;SDS011;26722;43.212;27.932;2023-04-24T13:50:54;19.15;;;5.38;;
40993;SDS011;26722;43.212;27.932;2023-04-24T13:53:19;17.25;;;6.25;;
40993;SDS011;26722;43.212;27.932;2023-04-24T13:55:45;21.30;;;6.05;;
40993;SDS011;26722;43.212;27.932;2023-04-24T13:58:10;15.23;;;5.47;;
40993;SDS011;26722;43.212;27.932;2023-04-24T14:00:36;20.02;;;5.55;;
40993;SDS011;26722;43.212;27.932;2023-04-24T14:03:01;19.27;;;5.95;;
40993;SDS011;26722;43.212;27.932;2023-04-24T14:05:27;19.60;;;6.20;;
40993;SDS011;26722;43.212;27.932;2023-04-24T14:07:52;15.27;;;5.63;;
40993;SDS011;26722;43.212;27.932;2023-04-24T14:10:17;19.25;;;6.15;;
40993;SDS011;26722;43.212;27.932;2023-04-24T14:12:43;21.70;;;6.10;;
40993;SDS011;26722;43.212;27.932;2023-04-24T14:15:08;15.90;;;5.13;;
40993;SDS011;26722;43.212;27.932;2023-04-24T14:17:35;12.45;;;4.65;;
40993;SDS011;26722;43.212;27.932;2023-04-24T14:20:00;12.40;;;5.30;;
40993;SDS011;26722;43.212;27.932;2023-04-24T14:22:26;16.92;;;4.80;;
40993;SDS011;26722;43.212;27.932;2023-04-24T14:24:52;12.85;;;4.53;;
40993;SDS011;26722;43.212;27.932;2023-04-24T14:27:17;15.55;;;5.40;;
40993;SDS011;26722;43.212;27.932;2023-04-24T14:29:43;15.98;;;5.13;;
40993;SDS011;26722;43.212;27.932;2023-04-24T14:32:10;11.90;;;5.07;;
40993;SDS011;26722;43.212;27.932;2023-04-24T14:34:35;15.60;;;4.63;;
40993;SDS011;26722;43.212;27.932;2023-04-24T14:37:01;12.32;;;5.05;;
40993;SDS011;26722;43.212;27.932;2023-04-24T14:39:27;13.57;;;5.53;;
40993;SDS011;26722;43.212;27.932;2023-04-24T14:41:53;12.88;;;5.47;;
40993;SDS011;26722;43.212;27.932;2023-04-24T14:44:19;17.65;;;5.43;;
40993;SDS011;26722;43.212;27.932;2023-04-24T14:46:44;18.75;;;5.35;;